Suva, Fiji
Current Conditions -  °F | °C
As of 10:00 PM on Thursday 23 Oct 2014 (Local Time) from NFNA Reporting Station
Broken Clouds Broken Clouds  
Wind Chill: 77°   Ceiling: 2200
Heat Index: 78°   Visibility: 6mi
Dew Point: 77°   Wind: 3mph
Humidity: 100%   Direction: 150°SSE
Pressure: 29.91"   Gusts: NA
Location:  18.13°S, 178.43°E
Report Text: NFNA 231000Z 15003KT 9999 BKN022 BKN045 25/25 Q1013
Loading
Personal Weather Stations






























Interactive Weather Map
Tropical Storm Tracking
New forecast layout! Learn more

10-Day Weather Forecast

Advertisements
Track Severe Weather on mobile